Eastlake, Michigan
Current Conditions -  °F | °C
As of 3:15 AM on Friday 24 Oct 2014 (Local Time) from KLDM Reporting Station
Overcast Overcast  
Wind Chill: 51°   Ceiling: 3000
Heat Index: 51°   Visibility: 10mi
Dew Point: 47°   Wind: 5mph
Humidity: 89%   Direction: 170°S
Pressure: 30.02"   Gusts: NA
Location:  44.24°N, 86.3°W
Report Text: KLDM 240715Z AUTO 17004KT 10SM OVC030 10/09 A3002 RMK AO2 T01030085
Loading
Personal Weather Stations






























Interactive Weather Map
Tropical Storm Tracking
New forecast layout! Learn more

10-Day Weather Forecast

Advertisements
Track Severe Weather on mobile